Main page
METAR-TAF:

METAR-TAF

Airports :

Beauvais, France

Beauvais–Tillé Airport

latitude: 49-28N, longitude: 002-07E, elevation: 109 m

Current weather observation

The report was made 45 minutes ago, at 08:30 UTC
Wind 6 kt from the South/Southwest
Temperature 12°C
Humidity 76%
Pressure 1027 hPa
Visibility 10 km or more
Overcast at a height of 4500 ft

METAR: LFOB 290830Z AUTO 20006KT 9999 OVC045 12/08 Q1027 NOSIG

Time: 11:15 (09:15 UTC)

Forecast

The report was made 4 hours and 15 minutes ago, at 05:00 UTC
Forecast valid from 29 at 06 UTC to 30 at 06 UTC
Wind 5 kt from the Southwest
Visibility 10 km or more
no clouds below 1500 m and no cumulonimbus
Temporary
from 29 at 09 UTC to 29 at 21 UTC

TAF: LFOB 290500Z 2906/3006 22005KT CAVOK TEMPO 2909/2921 NSC

Weather observations and forecasts of more than 4000 airports (METAR and TAF reports).

The available stations are represented by yellow and red dots on the map.

Hover mouse over dot to see the name of the station.

Then click to see weather observations and forecasts.

To change the map : click on the green buttons with a black cross to zoom in, on the green button with a dash to zoom out, or on the green arrows for adjacent maps.


METAR-TAF: